aviador You're here:

LFSI Decoded Metar

ST.-DIZIER in FRANCE
Report Time2017-09-25 16:30:00
UTC Time2017-09-25 16:46:44
Flight Rules vfr VFR
WindVRB at 01 kt
Visibility9999 m
Phenomena:N/A
Clouds:N/A
Expected CloudBase > 2,400 ft AGL from Temp-Dew spread
CeilingNone
Temp19°C (ISA +5)
Dew Point13°C (68% RH)
QNH1018 hPa
Density Alt1,070 ft
Elevation459 ft
Report Wrong Elevation
Raw Report
LFSI 251630Z AUTO VRB01KT CAVOK 19/13 Q1018=

Extra information for LFSI:More info

Metar Taf Metar & Taf Last 4 Metars F.Rules Stats Wind Profile Meteogram Temp Stats Airport Information Weather charts Add Link Nearby VenuesMetar ALERT Operation Metar Decoded Social comments